Time;durP1;ratioP1;P1;durP2;ratioP2;P2;SDS_P1;SDS_P2;PMS_P1;PMS_P2;Temp;Humidity;BMP_temperature;BMP_pressure;BME280_temperature;BME280_humidity;BME280_pressure;Samples;Min_cycle;Max_cycle;Signal;HPM_P1;HPM_P2
2022/10/09 00:00:12;;;;;;;3.83;2.97;;;;;;;;;;5050042;28;20622;-75
2022/10/09 00:02:41;;;;;;;3.40;2.77;;;;;;;;;;5050368;28;20703;-75
2022/10/09 00:05:08;;;;;;;3.13;2.93;;;;;;;;;;5049713;28;20201;-75
2022/10/09 00:07:35;;;;;;;3.27;2.97;;;;;;;;;;5050042;28;20234;-75
2022/10/09 00:10:01;;;;;;;3.60;3.30;;;;;;;;;;5049946;28;20666;-75
2022/10/09 00:12:28;;;;;;;3.67;3.37;;;;;;;;;;5050218;28;20198;-75
2022/10/09 00:14:55;;;;;;;3.53;3.23;;;;;;;;;;5050444;28;20213;-75
2022/10/09 00:17:22;;;;;;;3.13;2.93;;;;;;;;;;5049955;28;20307;-75
2022/10/09 00:19:50;;;;;;;3.40;3.10;;;;;;;;;;5050064;28;20202;-75
2022/10/09 00:22:16;;;;;;;3.97;3.57;;;;;;;;;;5049988;28;20202;-75
2022/10/09 00:24:43;;;;;;;3.67;3.10;;;;;;;;;;5049775;28;20304;-75
2022/10/09 00:27:10;;;;;;;3.87;2.87;;;;;;;;;;5049852;28;20225;-75
2022/10/09 00:29:37;;;;;;;3.07;2.80;;;;;;;;;;5049797;28;20201;-75
2022/10/09 00:32:04;;;;;;;3.60;3.33;;;;;;;;;;5050111;28;20201;-75
2022/10/09 00:34:30;;;;;;;3.90;3.43;;;;;;;;;;5050082;28;20198;-75
2022/10/09 00:36:59;;;;;;;3.37;3.17;;;;;;;;;;5049320;28;20285;-75
2022/10/09 00:39:25;;;;;;;2.67;2.47;;;;;;;;;;5049935;28;20194;-75
2022/10/09 00:41:52;;;;;;;3.00;2.70;;;;;;;;;;5050181;28;20233;-75
2022/10/09 00:44:51;;;;;;;3.67;3.40;;;;;;;;;;5049576;28;20208;-75
2022/10/09 00:47:22;;;;;;;5.00;3.30;;;;;;;;;;5048859;28;20771;-75
2022/10/09 00:49:49;;;;;;;3.20;3.00;;;;;;;;;;5049829;28;20655;-75
2022/10/09 00:52:18;;;;;;;3.43;2.87;;;;;;;;;;5050279;28;20237;-75
2022/10/09 00:54:44;;;;;;;4.03;3.13;;;;;;;;;;5049458;28;20204;-75
2022/10/09 00:57:11;;;;;;;2.90;2.70;;;;;;;;;;5049881;28;20209;-75
2022/10/09 00:59:39;;;;;;;3.87;3.07;;;;;;;;;;5049973;28;20300;-75
2022/10/09 01:02:06;;;;;;;3.33;3.03;;;;;;;;;;5053487;28;20267;-75
2022/10/09 01:04:33;;;;;;;6.13;3.33;;;;;;;;;;5053329;28;20622;-75
2022/10/09 01:07:09;;;;;;;7.30;3.70;;;;;;;;;;5052813;28;20225;-75
2022/10/09 01:09:40;;;;;;;10.13;3.53;;;;;;;;;;5053320;28;20209;-75
2022/10/09 01:12:12;;;;;;;3.33;3.03;;;;;;;;;;5053112;28;20221;-75
2022/10/09 01:14:44;;;;;;;2.90;2.60;;;;;;;;;;5052823;28;20256;-75
2022/10/09 01:17:15;;;;;;;6.93;3.60;;;;;;;;;;5052913;28;20587;-75
2022/10/09 01:19:55;;;;;;;3.50;3.20;;;;;;;;;;5053079;28;20197;-75
2022/10/09 01:22:33;;;;;;;4.00;3.13;;;;;;;;;;5052859;28;20199;-75
2022/10/09 01:25:06;;;;;;;4.27;3.87;;;;;;;;;;5052562;28;20688;-75
2022/10/09 01:27:34;;;;;;;3.37;3.07;;;;;;;;;;5052429;28;20660;-75
2022/10/09 01:30:04;;;;;;;3.57;3.27;;;;;;;;;;5053049;28;20205;-75
2022/10/09 01:32:33;;;;;;;2.67;2.47;;;;;;;;;;5052763;28;20677;-75
2022/10/09 01:35:00;;;;;;;4.90;2.83;;;;;;;;;;5052472;28;20212;-75
2022/10/09 01:37:28;;;;;;;3.87;3.40;;;;;;;;;;5052387;28;20265;-75
2022/10/09 01:39:54;;;;;;;3.13;2.83;;;;;;;;;;5052773;28;20200;-75
2022/10/09 01:42:22;;;;;;;3.93;2.77;;;;;;;;;;5052621;28;20209;-75
2022/10/09 01:44:50;;;;;;;2.73;2.53;;;;;;;;;;5052393;28;20284;-75
2022/10/09 01:47:19;;;;;;;6.30;2.90;;;;;;;;;;5052424;28;20280;-75
2022/10/09 01:49:52;;;;;;;5.27;3.50;;;;;;;;;;5052223;28;20213;-75
2022/10/09 01:52:30;;;;;;;4.47;3.07;;;;;;;;;;5052092;28;20225;-75
2022/10/09 01:55:07;;;;;;;3.93;3.57;;;;;;;;;;5052408;28;20205;-75
2022/10/09 01:57:38;;;;;;;3.13;2.93;;;;;;;;;;5052180;28;20701;-75
2022/10/09 02:00:10;;;;;;;3.40;3.10;;;;;;;;;;5051853;28;20762;-75
2022/10/09 02:02:37;;;;;;;3.37;3.17;;;;;;;;;;5052185;28;20693;-75
2022/10/09 02:05:04;;;;;;;3.20;2.90;;;;;;;;;;5052016;28;20205;-75
2022/10/09 02:07:32;;;;;;;3.00;2.70;;;;;;;;;;5052335;28;20222;-75
2022/10/09 02:10:01;;;;;;;4.13;3.23;;;;;;;;;;5051534;28;20289;-75
2022/10/09 02:12:28;;;;;;;3.03;2.83;;;;;;;;;;5052190;28;20236;-75
2022/10/09 02:14:55;;;;;;;4.40;3.47;;;;;;;;;;5051750;28;20207;-75
2022/10/09 02:17:26;;;;;;;2.70;2.57;;;;;;;;;;5051769;28;20202;-75
2022/10/09 02:19:56;;;;;;;3.77;3.47;;;;;;;;;;5051721;28;20285;-75
2022/10/09 02:22:26;;;;;;;2.63;2.43;;;;;;;;;;5051740;28;20202;-75
2022/10/09 02:24:53;;;;;;;2.77;2.57;;;;;;;;;;5051833;28;20620;-75
2022/10/09 02:27:21;;;;;;;2.87;2.60;;;;;;;;;;5051045;28;20229;-75
2022/10/09 02:29:48;;;;;;;3.17;2.80;;;;;;;;;;5051534;28;20198;-75
2022/10/09 02:32:16;;;;;;;3.23;2.93;;;;;;;;;;5051896;28;20206;-75
2022/10/09 02:34:44;;;;;;;3.63;2.63;;;;;;;;;;5051478;28;20596;-75
2022/10/09 02:37:11;;;;;;;2.73;2.50;;;;;;;;;;5051637;28;20206;-75
2022/10/09 02:39:38;;;;;;;4.20;2.60;;;;;;;;;;5051454;28;20233;-75
2022/10/09 02:42:05;;;;;;;2.73;2.53;;;;;;;;;;5051306;28;20202;-75
2022/10/09 02:44:31;;;;;;;3.67;2.73;;;;;;;;;;5050971;28;20201;-75
2022/10/09 02:46:58;;;;;;;3.13;2.83;;;;;;;;;;5051418;28;20226;-75
2022/10/09 02:49:25;;;;;;;2.97;2.77;;;;;;;;;;5051293;28;20692;-75
2022/10/09 02:51:53;;;;;;;3.43;3.13;;;;;;;;;;5051276;28;20263;-75
2022/10/09 02:54:20;;;;;;;2.70;2.47;;;;;;;;;;5050860;28;20204;-75
2022/10/09 02:56:46;;;;;;;4.63;2.57;;;;;;;;;;5051023;28;20258;-75
2022/10/09 02:59:13;;;;;;;2.70;2.50;;;;;;;;;;5051050;28;20632;-75
2022/10/09 03:01:40;;;;;;;3.07;2.77;;;;;;;;;;5050836;28;20209;-75
2022/10/09 03:04:07;;;;;;;2.33;2.20;;;;;;;;;;5050913;28;20201;-75
2022/10/09 03:06:34;;;;;;;2.80;2.60;;;;;;;;;;5051118;28;20592;-75
2022/10/09 03:09:02;;;;;;;2.93;2.73;;;;;;;;;;5050482;28;20206;-75
2022/10/09 03:11:29;;;;;;;5.13;3.00;;;;;;;;;;5050865;28;20200;-75
2022/10/09 03:13:56;;;;;;;5.50;3.33;;;;;;;;;;5050742;28;20205;-75
2022/10/09 03:16:24;;;;;;;4.47;2.67;;;;;;;;;;5050829;28;20336;-75
2022/10/09 03:18:52;;;;;;;4.23;2.67;;;;;;;;;;5050815;28;20266;-75
2022/10/09 03:21:20;;;;;;;2.90;2.70;;;;;;;;;;5050879;28;20211;-75
2022/10/09 03:23:47;;;;;;;3.77;2.70;;;;;;;;;;5049928;28;20205;-75
2022/10/09 03:26:17;;;;;;;3.83;2.93;;;;;;;;;;5050480;28;20204;-75
2022/10/09 03:28:46;;;;;;;2.93;2.73;;;;;;;;;;5050567;28;20630;-75
2022/10/09 03:31:13;;;;;;;4.03;2.53;;;;;;;;;;5050605;28;20734;-75
2022/10/09 03:33:40;;;;;;;2.97;2.67;;;;;;;;;;5050375;28;20290;-75
2022/10/09 03:36:08;;;;;;;5.23;2.70;;;;;;;;;;5050292;28;20637;-75
2022/10/09 03:38:35;;;;;;;2.93;2.73;;;;;;;;;;5050479;28;20205;-75
2022/10/09 03:41:03;;;;;;;2.80;2.60;;;;;;;;;;5050307;28;20198;-75
2022/10/09 03:43:31;;;;;;;3.07;2.77;;;;;;;;;;5050824;28;20221;-75
2022/10/09 03:45:58;;;;;;;3.13;2.83;;;;;;;;;;5050023;28;20642;-75
2022/10/09 03:48:25;;;;;;;3.00;2.80;;;;;;;;;;5050309;28;20217;-75
2022/10/09 03:50:52;;;;;;;3.47;2.57;;;;;;;;;;5050061;28;20205;-75
2022/10/09 03:53:18;;;;;;;3.43;3.13;;;;;;;;;;5049818;28;20228;-75
2022/10/09 03:55:45;;;;;;;3.07;2.83;;;;;;;;;;5050425;28;20202;-75
2022/10/09 03:58:12;;;;;;;2.97;2.77;;;;;;;;;;5050414;28;20259;-75
2022/10/09 04:00:40;;;;;;;3.00;2.70;;;;;;;;;;5049431;28;20209;-75
2022/10/09 04:03:07;;;;;;;5.27;3.33;;;;;;;;;;5050147;28;20749;-75
2022/10/09 04:05:34;;;;;;;4.33;3.93;;;;;;;;;;5049618;28;20205;-75
2022/10/09 04:08:01;;;;;;;5.83;4.70;;;;;;;;;;5042093;28;20615;-75
2022/10/09 04:10:28;;;;;;;4.90;3.57;;;;;;;;;;5032197;28;20203;-75
2022/10/09 04:12:55;;;;;;;4.13;3.77;;;;;;;;;;5039189;28;20209;-74
2022/10/09 04:15:21;;;;;;;4.83;3.83;;;;;;;;;;5049667;28;20209;-74
2022/10/09 04:17:49;;;;;;;5.10;3.90;;;;;;;;;;5050095;28;20206;-74
2022/10/09 04:20:16;;;;;;;3.90;3.60;;;;;;;;;;5036015;28;20643;-74
2022/10/09 04:22:43;;;;;;;4.03;3.20;;;;;;;;;;5050144;28;20567;-74
2022/10/09 04:25:10;;;;;;;3.10;2.90;;;;;;;;;;5049617;28;20585;-74
2022/10/09 04:27:37;;;;;;;3.30;3.00;;;;;;;;;;5050116;28;20229;-74
2022/10/09 04:30:04;;;;;;;4.20;3.13;;;;;;;;;;5049643;28;20206;-74
2022/10/09 04:32:31;;;;;;;4.17;3.17;;;;;;;;;;5049563;28;20198;-74
2022/10/09 04:34:59;;;;;;;5.27;3.07;;;;;;;;;;5051309;28;20208;-74
2022/10/09 04:37:26;;;;;;;3.47;3.00;;;;;;;;;;5054179;28;20209;-74
2022/10/09 04:39:52;;;;;;;4.40;2.90;;;;;;;;;;5053946;28;20252;-74
2022/10/09 04:42:19;;;;;;;2.80;2.60;;;;;;;;;;5053520;28;20644;-74
2022/10/09 04:44:46;;;;;;;3.57;3.27;;;;;;;;;;5053504;28;20202;-74
2022/10/09 04:47:13;;;;;;;4.43;3.40;;;;;;;;;;5053588;28;20229;-74
2022/10/09 04:49:39;;;;;;;4.47;2.83;;;;;;;;;;5053309;28;20212;-74
2022/10/09 04:52:08;;;;;;;5.80;2.53;;;;;;;;;;5053278;28;20233;-74
2022/10/09 04:54:34;;;;;;;3.03;2.60;;;;;;;;;;5049912;28;20672;-75
2022/10/09 04:57:01;;;;;;;3.37;2.60;;;;;;;;;;5053430;28;20207;-74
2022/10/09 04:59:28;;;;;;;4.23;3.10;;;;;;;;;;5052973;28;21275;-74
2022/10/09 05:01:55;;;;;;;3.30;3.10;;;;;;;;;;5052976;28;20218;-74
2022/10/09 05:04:21;;;;;;;3.67;2.77;;;;;;;;;;5052902;28;20220;-74
2022/10/09 05:06:48;;;;;;;3.00;2.80;;;;;;;;;;5053123;28;20215;-74
2022/10/09 05:09:17;;;;;;;3.43;3.13;;;;;;;;;;5051318;28;20604;-76
2022/10/09 05:11:43;;;;;;;3.13;2.93;;;;;;;;;;5049535;28;20202;-75
2022/10/09 05:14:10;;;;;;;2.60;2.40;;;;;;;;;;5052008;28;20198;-75
2022/10/09 05:16:40;;;;;;;3.17;2.73;;;;;;;;;;5052098;28;20206;-75
2022/10/09 05:19:06;;;;;;;3.07;2.77;;;;;;;;;;5051341;28;20240;-76
2022/10/09 05:21:35;;;;;;;3.10;2.57;;;;;;;;;;5051736;28;20204;-75
2022/10/09 05:24:02;;;;;;;3.03;2.83;;;;;;;;;;5050209;28;20267;-75
2022/10/09 05:26:30;;;;;;;3.00;2.70;;;;;;;;;;5052354;28;20203;-75
2022/10/09 05:28:57;;;;;;;2.97;2.77;;;;;;;;;;5051805;28;20227;-75
2022/10/09 05:31:25;;;;;;;3.03;2.73;;;;;;;;;;5052381;28;20757;-75
2022/10/09 05:33:52;;;;;;;3.97;2.60;;;;;;;;;;5052537;28;20228;-75
2022/10/09 05:36:20;;;;;;;3.27;3.03;;;;;;;;;;5052511;28;20194;-74
2022/10/09 05:38:46;;;;;;;3.30;3.00;;;;;;;;;;5051914;28;20557;-75
2022/10/09 05:41:15;;;;;;;3.90;3.47;;;;;;;;;;5052252;28;20194;-75
2022/10/09 05:43:45;;;;;;;4.40;3.13;;;;;;;;;;5052560;28;20206;-74
2022/10/09 05:46:13;;;;;;;2.93;2.73;;;;;;;;;;5051469;28;20225;-75
2022/10/09 05:48:42;;;;;;;3.63;3.27;;;;;;;;;;5052173;28;20221;-75
2022/10/09 05:51:11;;;;;;;4.27;2.70;;;;;;;;;;5050921;28;20198;-75
2022/10/09 05:53:38;;;;;;;9.57;2.80;;;;;;;;;;5050508;28;20296;-75
2022/10/09 05:56:13;;;;;;;2.80;2.40;;;;;;;;;;5048696;28;20201;-75
2022/10/09 05:58:40;;;;;;;2.73;2.53;;;;;;;;;;5050332;28;20292;-75
2022/10/09 06:01:08;;;;;;;3.70;2.97;;;;;;;;;;5050926;28;20634;-74
2022/10/09 06:03:35;;;;;;;4.67;2.47;;;;;;;;;;5050283;28;20263;-75
2022/10/09 06:06:03;;;;;;;4.30;3.20;;;;;;;;;;5050504;28;20210;-75
2022/10/09 06:08:33;;;;;;;2.80;2.60;;;;;;;;;;5051004;28;20691;-75
2022/10/09 06:11:08;;;;;;;2.77;2.57;;;;;;;;;;5051700;28;20269;-74
2022/10/09 06:13:35;;;;;;;2.57;2.37;;;;;;;;;;5051609;28;20202;-75
2022/10/09 06:16:02;;;;;;;2.47;2.27;;;;;;;;;;5049956;28;20205;-74
2022/10/09 06:18:30;;;;;;;2.47;2.17;;;;;;;;;;5052372;28;20206;-74
2022/10/09 06:20:58;;;;;;;3.23;2.57;;;;;;;;;;5051798;28;20205;-75
2022/10/09 06:23:26;;;;;;;2.87;2.67;;;;;;;;;;5050567;28;20202;-75
2022/10/09 06:25:54;;;;;;;4.17;2.77;;;;;;;;;;5050865;28;20268;-74
2022/10/09 06:28:21;;;;;;;28.70;5.90;;;;;;;;;;5051655;28;20221;-73
2022/10/09 06:30:48;;;;;;;3.00;2.53;;;;;;;;;;5050875;28;20606;-74
2022/10/09 06:33:15;;;;;;;9.07;2.53;;;;;;;;;;5051498;28;20213;-74
2022/10/09 06:35:43;;;;;;;2.50;2.30;;;;;;;;;;5051158;28;20205;-74
2022/10/09 06:38:10;;;;;;;5.93;2.77;;;;;;;;;;5051525;28;20210;-73
2022/10/09 06:40:41;;;;;;;6.27;4.10;;;;;;;;;;5051206;28;20217;-74
2022/10/09 06:43:07;;;;;;;2.60;2.40;;;;;;;;;;5051869;28;20208;-74
2022/10/09 06:45:37;;;;;;;4.93;3.20;;;;;;;;;;5049382;28;20199;-75
2022/10/09 06:48:03;;;;;;;3.47;3.03;;;;;;;;;;5050684;28;20341;-75
2022/10/09 06:50:34;;;;;;;5.97;3.10;;;;;;;;;;5051126;28;20199;-74
2022/10/09 06:53:03;;;;;;;7.40;3.60;;;;;;;;;;5051076;28;20237;-74
2022/10/09 06:55:30;;;;;;;6.60;2.70;;;;;;;;;;5051094;28;20205;-74
2022/10/09 06:57:58;;;;;;;9.33;5.63;;;;;;;;;;5049544;28;21898;-75
2022/10/09 07:00:25;;;;;;;6.70;4.17;;;;;;;;;;5050134;28;20194;-75
2022/10/09 07:02:51;;;;;;;6.17;2.63;;;;;;;;;;5051309;28;20201;-74
2022/10/09 07:05:18;;;;;;;2.80;2.60;;;;;;;;;;5050852;28;20276;-75
2022/10/09 07:07:45;;;;;;;3.23;2.90;;;;;;;;;;5050844;28;20220;-74
2022/10/09 07:10:13;;;;;;;7.80;2.53;;;;;;;;;;5050411;28;20209;-74
2022/10/09 07:12:40;;;;;;;15.77;4.30;;;;;;;;;;5050841;28;20203;-75
2022/10/09 07:15:08;;;;;;;26.53;5.57;;;;;;;;;;5049989;28;20257;-75
2022/10/09 07:17:34;;;;;;;5.93;3.40;;;;;;;;;;5049983;28;20259;-83
2022/10/09 07:20:01;;;;;;;3.13;2.87;;;;;;;;;;5048253;28;20204;-76
2022/10/09 07:22:28;;;;;;;4.90;3.27;;;;;;;;;;5042257;28;20228;-75
2022/10/09 07:24:55;;;;;;;5.37;3.00;;;;;;;;;;5048942;28;20197;-75
2022/10/09 07:27:23;;;;;;;4.77;3.03;;;;;;;;;;5049183;28;20209;-75
2022/10/09 07:29:50;;;;;;;3.37;2.97;;;;;;;;;;5048770;28;20228;-74
2022/10/09 07:32:16;;;;;;;5.73;3.50;;;;;;;;;;5048362;28;20200;-75
2022/10/09 07:34:43;;;;;;;10.03;3.40;;;;;;;;;;5049897;28;20231;-75
2022/10/09 07:37:10;;;;;;;3.53;3.23;;;;;;;;;;5049226;28;20219;-75
2022/10/09 07:39:37;;;;;;;8.47;4.53;;;;;;;;;;5049839;28;20193;-75
2022/10/09 07:42:04;;;;;;;28.20;5.50;;;;;;;;;;5050066;28;20197;-75
2022/10/09 07:44:34;;;;;;;9.63;3.87;;;;;;;;;;5049692;28;20710;-75
2022/10/09 07:47:00;;;;;;;17.87;4.20;;;;;;;;;;5048324;28;20284;-75
2022/10/09 07:49:27;;;;;;;22.47;4.77;;;;;;;;;;5048870;28;20230;-75
2022/10/09 07:51:54;;;;;;;15.37;4.40;;;;;;;;;;5048000;28;20209;-75
2022/10/09 07:54:21;;;;;;;23.27;5.33;;;;;;;;;;5048348;28;20198;-75
2022/10/09 07:56:48;;;;;;;11.40;4.13;;;;;;;;;;5047749;28;20209;-74
2022/10/09 07:59:16;;;;;;;9.03;4.33;;;;;;;;;;5048254;28;20213;-74
2022/10/09 08:01:44;;;;;;;6.70;4.10;;;;;;;;;;5048238;28;20283;-74
2022/10/09 08:04:11;;;;;;;21.57;4.97;;;;;;;;;;5046110;28;20197;-75
2022/10/09 08:06:38;;;;;;;4.87;3.97;;;;;;;;;;5047063;28;20194;-75
2022/10/09 08:09:06;;;;;;;4.37;3.57;;;;;;;;;;5051181;28;20236;-75
2022/10/09 08:11:33;;;;;;;7.57;3.90;;;;;;;;;;5053470;28;20197;-75
2022/10/09 08:14:00;;;;;;;3.87;2.83;;;;;;;;;;5053810;28;20212;-75
2022/10/09 08:16:28;;;;;;;4.10;3.77;;;;;;;;;;5054014;28;20202;-76
2022/10/09 08:19:00;;;;;;;4.13;3.47;;;;;;;;;;5051048;28;20201;-75
2022/10/09 08:21:27;;;;;;;3.67;3.33;;;;;;;;;;5054301;28;20213;-75
2022/10/09 08:23:55;;;;;;;6.27;3.60;;;;;;;;;;5052951;28;20202;-75
2022/10/09 08:26:23;;;;;;;6.20;4.90;;;;;;;;;;5052400;28;20209;-75
2022/10/09 08:28:51;;;;;;;4.57;2.90;;;;;;;;;;5053724;28;20668;-74
2022/10/09 08:31:18;;;;;;;4.47;4.07;;;;;;;;;;5053879;28;20251;-74
2022/10/09 08:33:45;;;;;;;3.87;3.50;;;;;;;;;;5052753;28;20206;-75
2022/10/09 08:36:15;;;;;;;7.20;3.90;;;;;;;;;;5053627;28;20210;-74
2022/10/09 08:38:42;;;;;;;5.77;3.90;;;;;;;;;;5052873;28;20775;-74
2022/10/09 08:41:12;;;;;;;13.40;4.23;;;;;;;;;;5053529;28;20220;-74
2022/10/09 08:43:43;;;;;;;3.53;3.07;;;;;;;;;;5053666;28;20206;-74
2022/10/09 08:46:16;;;;;;;3.60;3.27;;;;;;;;;;5051026;28;20259;-75
2022/10/09 08:48:44;;;;;;;5.60;3.37;;;;;;;;;;5051121;28;20233;-74
2022/10/09 08:51:18;;;;;;;26.87;5.90;;;;;;;;;;5052327;28;20363;-75
2022/10/09 08:53:47;;;;;;;3.33;3.03;;;;;;;;;;5051332;28;20228;-75
2022/10/09 08:56:15;;;;;;;5.60;4.30;;;;;;;;;;5051987;28;20205;-75
2022/10/09 08:58:43;;;;;;;4.27;3.03;;;;;;;;;;5052828;28;20202;-75
2022/10/09 09:01:17;;;;;;;3.60;3.30;;;;;;;;;;5050860;28;20201;-76
2022/10/09 09:03:51;;;;;;;4.53;3.73;;;;;;;;;;5049970;28;20216;-74
2022/10/09 09:06:24;;;;;;;4.67;4.27;;;;;;;;;;5053414;28;20204;-75
2022/10/09 09:08:55;;;;;;;9.87;3.80;;;;;;;;;;5053170;28;20229;-74
2022/10/09 09:11:28;;;;;;;3.47;3.10;;;;;;;;;;5052009;28;20696;-76
2022/10/09 09:14:08;;;;;;;3.47;3.17;;;;;;;;;;5052233;28;20210;-76
2022/10/09 09:16:41;;;;;;;18.23;9.90;;;;;;;;;;5046755;28;20229;-76
2022/10/09 09:19:30;;;;;;;3.30;3.00;;;;;;;;;;5050432;28;20198;-76
2022/10/09 09:21:59;;;;;;;3.30;2.67;;;;;;;;;;5048459;28;20225;-76
2022/10/09 09:24:35;;;;;;;3.50;3.20;;;;;;;;;;5051730;28;20952;-76
2022/10/09 09:27:04;;;;;;;3.70;2.90;;;;;;;;;;5052124;28;20198;-76
2022/10/09 09:29:40;;;;;;;4.17;3.17;;;;;;;;;;5052351;28;20283;-76
2022/10/09 09:32:15;;;;;;;3.83;3.20;;;;;;;;;;5052734;28;20205;-75
2022/10/09 09:34:43;;;;;;;3.50;3.20;;;;;;;;;;5052501;28;20263;-76
2022/10/09 09:37:11;;;;;;;5.63;3.60;;;;;;;;;;5052547;28;20205;-76
2022/10/09 09:39:39;;;;;;;5.20;3.03;;;;;;;;;;5052811;28;20279;-76
2022/10/09 09:42:13;;;;;;;3.33;3.03;;;;;;;;;;5053191;28;20264;-76
2022/10/09 09:44:43;;;;;;;4.07;3.43;;;;;;;;;;5052446;28;20213;-76
2022/10/09 09:47:14;;;;;;;3.23;2.93;;;;;;;;;;5052369;28;20201;-76
2022/10/09 09:49:53;;;;;;;3.53;3.23;;;;;;;;;;5050965;28;20312;-76
2022/10/09 09:52:21;;;;;;;6.33;2.87;;;;;;;;;;5052660;28;20259;-75
2022/10/09 09:54:48;;;;;;;5.00;3.23;;;;;;;;;;5052206;28;20198;-76
2022/10/09 09:57:27;;;;;;;5.77;3.33;;;;;;;;;;5052177;28;20724;-75
2022/10/09 09:59:54;;;;;;;3.50;3.20;;;;;;;;;;5052010;28;20208;-76
2022/10/09 10:02:22;;;;;;;5.20;3.73;;;;;;;;;;5052271;28;20202;-76
2022/10/09 10:04:52;;;;;;;3.20;3.00;;;;;;;;;;5052572;28;20197;-76
2022/10/09 10:07:31;;;;;;;3.83;3.53;;;;;;;;;;5051069;28;20263;-76
2022/10/09 10:10:14;;;;;;;3.90;3.07;;;;;;;;;;5046311;28;20591;-76
2022/10/09 10:12:42;;;;;;;3.37;3.07;;;;;;;;;;5050805;28;20244;-75
2022/10/09 10:15:21;;;;;;;2.97;2.77;;;;;;;;;;5049328;28;20209;-76
2022/10/09 10:17:50;;;;;;;4.33;3.77;;;;;;;;;;5044255;28;20204;-76
2022/10/09 10:20:22;;;;;;;6.40;2.97;;;;;;;;;;5051861;28;20279;-76
2022/10/09 10:22:55;;;;;;;7.40;2.77;;;;;;;;;;5051709;28;20213;-77
2022/10/09 10:25:25;;;;;;;3.60;2.30;;;;;;;;;;5051613;28;20213;-76
2022/10/09 10:27:56;;;;;;;3.07;2.87;;;;;;;;;;5051430;28;20202;-76
2022/10/09 10:30:23;;;;;;;3.83;3.00;;;;;;;;;;5050635;28;20231;-76
2022/10/09 10:32:55;;;;;;;3.27;3.07;;;;;;;;;;5050516;28;20202;-76
2022/10/09 10:35:24;;;;;;;3.03;2.83;;;;;;;;;;5050062;28;20201;-77
2022/10/09 10:37:55;;;;;;;3.63;3.23;;;;;;;;;;5050515;28;20285;-77
2022/10/09 10:40:25;;;;;;;3.37;3.03;;;;;;;;;;5051977;28;20209;-76
2022/10/09 10:43:02;;;;;;;3.03;2.77;;;;;;;;;;5051749;28;20583;-76
2022/10/09 10:45:33;;;;;;;3.90;3.00;;;;;;;;;;5030959;28;20202;-76
2022/10/09 10:48:01;;;;;;;3.03;2.73;;;;;;;;;;5048740;28;20747;-76
2022/10/09 10:50:35;;;;;;;6.20;3.20;;;;;;;;;;5050953;28;20252;-76
2022/10/09 10:53:06;;;;;;;4.50;3.13;;;;;;;;;;5048771;28;20237;-76
2022/10/09 10:55:40;;;;;;;3.17;2.87;;;;;;;;;;5051318;28;20575;-76
2022/10/09 10:58:17;;;;;;;2.87;2.67;;;;;;;;;;5051270;28;20213;-76
2022/10/09 11:00:50;;;;;;;3.87;3.07;;;;;;;;;;5051169;28;20201;-76
2022/10/09 11:03:29;;;;;;;11.70;3.80;;;;;;;;;;5051303;28;20206;-75
2022/10/09 11:06:03;;;;;;;3.20;3.00;;;;;;;;;;5051024;28;20209;-76
2022/10/09 11:08:44;;;;;;;8.87;3.07;;;;;;;;;;5050580;28;20202;-76
2022/10/09 11:11:16;;;;;;;4.93;3.20;;;;;;;;;;5051461;28;20205;-76
2022/10/09 11:13:51;;;;;;;33.10;6.40;;;;;;;;;;5050870;28;20255;-75
2022/10/09 11:16:34;;;;;;;3.10;2.90;;;;;;;;;;5051154;28;20193;-75
2022/10/09 11:19:10;;;;;;;2.93;2.67;;;;;;;;;;5050743;28;20210;-75
2022/10/09 11:21:46;;;;;;;6.30;3.50;;;;;;;;;;5050875;28;20252;-74
2022/10/09 11:24:30;;;;;;;3.17;2.90;;;;;;;;;;5050539;28;20198;-75
2022/10/09 11:27:01;;;;;;;3.10;2.80;;;;;;;;;;5050889;28;20263;-74
2022/10/09 11:29:35;;;;;;;5.17;2.47;;;;;;;;;;5050248;28;20275;-75
2022/10/09 11:32:05;;;;;;;2.80;2.60;;;;;;;;;;5051052;28;20201;-75
2022/10/09 11:34:35;;;;;;;3.10;2.80;;;;;;;;;;5050430;28;20209;-75
2022/10/09 11:37:04;;;;;;;3.30;2.77;;;;;;;;;;5050798;28;20213;-74
2022/10/09 11:39:33;;;;;;;3.43;3.13;;;;;;;;;;5050374;28;20213;-74
2022/10/09 11:42:00;;;;;;;2.77;2.57;;;;;;;;;;5049241;28;20210;-75
2022/10/09 11:44:36;;;;;;;5.47;2.37;;;;;;;;;;5049904;28;20688;-75
2022/10/09 11:47:09;;;;;;;4.97;3.00;;;;;;;;;;5046867;28;20654;-75
2022/10/09 11:49:43;;;;;;;4.33;2.93;;;;;;;;;;5050434;28;20272;-75
2022/10/09 11:52:18;;;;;;;3.17;2.90;;;;;;;;;;5049094;28;20229;-75
2022/10/09 11:54:47;;;;;;;3.43;2.87;;;;;;;;;;5050404;28;20205;-75
2022/10/09 11:57:14;;;;;;;5.13;2.30;;;;;;;;;;5048495;28;20209;-75
2022/10/09 11:59:41;;;;;;;4.27;3.00;;;;;;;;;;5050388;28;20212;-75
2022/10/09 12:02:24;;;;;;;4.73;3.40;;;;;;;;;;5049779;28;20259;-75
2022/10/09 12:04:51;;;;;;;5.23;2.70;;;;;;;;;;5049357;28;20684;-76
2022/10/09 12:07:30;;;;;;;3.87;2.97;;;;;;;;;;5049603;28;20586;-76
2022/10/09 12:10:01;;;;;;;8.23;2.70;;;;;;;;;;5049122;28;20221;-75
2022/10/09 12:12:29;;;;;;;2.57;2.33;;;;;;;;;;5036979;28;20205;-76
2022/10/09 12:14:57;;;;;;;2.87;2.57;;;;;;;;;;5050261;28;20206;-74
2022/10/09 12:17:34;;;;;;;3.97;2.37;;;;;;;;;;5048802;28;20244;-74
2022/10/09 12:20:05;;;;;;;2.87;2.67;;;;;;;;;;5047037;28;20292;-76
2022/10/09 12:22:35;;;;;;;2.97;2.70;;;;;;;;;;5050195;28;20198;-75
2022/10/09 12:25:07;;;;;;;3.53;3.23;;;;;;;;;;5050083;28;20742;-75
2022/10/09 12:27:36;;;;;;;3.43;2.27;;;;;;;;;;5049688;28;20312;-73
2022/10/09 12:30:07;;;;;;;2.80;2.60;;;;;;;;;;5049526;28;20229;-75
2022/10/09 12:32:40;;;;;;;3.87;2.97;;;;;;;;;;5049781;28;20205;-76
2022/10/09 12:35:17;;;;;;;2.80;2.57;;;;;;;;;;5047732;28;20670;-76
2022/10/09 12:37:43;;;;;;;4.13;2.90;;;;;;;;;;5048777;28;20213;-76
2022/10/09 12:40:15;;;;;;;3.93;3.13;;;;;;;;;;5047851;28;20239;-77
2022/10/09 12:42:43;;;;;;;3.13;2.83;;;;;;;;;;5047197;28;20696;-78
2022/10/09 12:45:16;;;;;;;3.10;2.47;;;;;;;;;;5048245;28;20201;-82
2022/10/09 12:47:42;;;;;;;2.33;2.13;;;;;;;;;;5049497;28;20229;-76
2022/10/09 12:50:20;;;;;;;3.10;2.87;;;;;;;;;;5049628;28;20239;-84
2022/10/09 12:52:48;;;;;;;2.57;2.47;;;;;;;;;;5049617;28;20732;-82
2022/10/09 12:55:25;;;;;;;3.33;3.03;;;;;;;;;;5049544;28;20719;-81
2022/10/09 12:57:52;;;;;;;3.90;2.90;;;;;;;;;;5053931;28;20205;-80
2022/10/09 13:00:19;;;;;;;3.17;2.87;;;;;;;;;;5053399;28;20571;-79
2022/10/09 13:02:46;;;;;;;3.03;2.73;;;;;;;;;;5054023;28;20201;-78
2022/10/09 13:05:13;;;;;;;2.83;2.63;;;;;;;;;;5053675;28;20205;-78
2022/10/09 13:07:40;;;;;;;3.37;2.60;;;;;;;;;;5053497;28;20202;-78
2022/10/09 13:10:15;;;;;;;2.83;2.63;;;;;;;;;;5053210;28;20222;-77
2022/10/09 13:12:49;;;;;;;3.00;2.80;;;;;;;;;;5053521;28;20201;-77
2022/10/09 13:15:30;;;;;;;2.67;2.47;;;;;;;;;;5052959;28;20202;-78
2022/10/09 13:17:57;;;;;;;6.60;4.93;;;;;;;;;;5053632;28;20201;-78
2022/10/09 13:20:26;;;;;;;3.37;2.87;;;;;;;;;;5053500;28;20202;-78
2022/10/09 13:22:54;;;;;;;3.47;3.00;;;;;;;;;;5053479;28;20202;-78
2022/10/09 13:25:20;;;;;;;4.50;3.00;;;;;;;;;;5052995;28;20296;-80
2022/10/09 13:27:49;;;;;;;2.90;2.67;;;;;;;;;;5053620;28;20209;-78
2022/10/09 13:30:15;;;;;;;2.20;2.10;;;;;;;;;;5052804;28;20313;-79
2022/10/09 13:32:42;;;;;;;2.53;2.33;;;;;;;;;;5053585;28;20213;-80
2022/10/09 13:35:09;;;;;;;2.80;2.60;;;;;;;;;;5052722;28;20735;-78
2022/10/09 13:37:36;;;;;;;2.77;2.57;;;;;;;;;;5053294;28;20201;-79
2022/10/09 13:40:04;;;;;;;10.30;2.40;;;;;;;;;;5052796;28;20639;-79
2022/10/09 13:42:35;;;;;;;3.00;2.40;;;;;;;;;;5052830;28;20194;-80
2022/10/09 13:45:04;;;;;;;3.03;2.73;;;;;;;;;;5052461;28;20206;-79
2022/10/09 13:47:30;;;;;;;2.60;2.40;;;;;;;;;;5053023;28;20201;-78
2022/10/09 13:49:57;;;;;;;3.03;2.73;;;;;;;;;;5052572;28;20221;-79
2022/10/09 13:52:24;;;;;;;4.57;2.73;;;;;;;;;;5052956;28;20236;-78
2022/10/09 13:54:51;;;;;;;4.00;3.53;;;;;;;;;;5052789;28;20202;-79
2022/10/09 13:57:18;;;;;;;2.70;2.50;;;;;;;;;;5052736;28;20555;-80
2022/10/09 13:59:44;;;;;;;2.80;2.50;;;;;;;;;;5052713;28;20210;-79
2022/10/09 14:02:12;;;;;;;2.70;2.50;;;;;;;;;;5052660;28;20201;-79
2022/10/09 14:04:39;;;;;;;7.87;5.93;;;;;;;;;;5052113;28;20213;-79
2022/10/09 14:07:06;;;;;;;6.17;5.47;;;;;;;;;;5052453;28;20252;-78
2022/10/09 14:09:33;;;;;;;4.00;3.70;;;;;;;;;;5052268;28;20684;-83
2022/10/09 14:12:00;;;;;;;3.50;2.57;;;;;;;;;;5051667;28;20632;-79
2022/10/09 14:14:27;;;;;;;2.70;2.50;;;;;;;;;;5052016;28;20198;-78
2022/10/09 14:16:53;;;;;;;3.00;2.70;;;;;;;;;;5052248;28;20793;-78
2022/10/09 14:19:25;;;;;;;2.20;2.10;;;;;;;;;;5052510;28;20585;-78
2022/10/09 14:21:52;;;;;;;2.73;2.50;;;;;;;;;;5051919;28;20202;-78
2022/10/09 14:24:19;;;;;;;2.70;2.50;;;;;;;;;;5052083;28;20570;-78
2022/10/09 14:26:46;;;;;;;5.13;2.37;;;;;;;;;;5052334;28;20221;-78
2022/10/09 14:29:13;;;;;;;2.60;2.33;;;;;;;;;;5052042;28;20259;-78
2022/10/09 14:31:40;;;;;;;2.80;2.57;;;;;;;;;;5052012;28;20229;-78
2022/10/09 14:34:07;;;;;;;2.93;2.60;;;;;;;;;;5051991;28;20205;-78
2022/10/09 14:36:36;;;;;;;2.93;2.20;;;;;;;;;;5052210;28;20247;-78
2022/10/09 14:39:03;;;;;;;7.30;2.40;;;;;;;;;;5051406;28;20205;-77
2022/10/09 14:41:30;;;;;;;2.70;2.50;;;;;;;;;;5051926;28;20198;-79
2022/10/09 14:43:58;;;;;;;2.33;2.23;;;;;;;;;;5051812;28;20202;-79
2022/10/09 14:46:26;;;;;;;4.20;2.40;;;;;;;;;;5037888;28;20197;-78
2022/10/09 14:48:54;;;;;;;2.40;2.20;;;;;;;;;;5051988;28;20255;-78
2022/10/09 14:51:22;;;;;;;2.83;2.53;;;;;;;;;;5049557;28;20291;-79
2022/10/09 14:53:56;;;;;;;2.53;2.33;;;;;;;;;;5048968;28;20241;-81